createdAt,value
2023-05-19T00:01:15.182Z,3.47
2023-05-19T00:03:55.122Z,3.88
2023-05-19T00:06:31.852Z,3.58
2023-05-19T00:08:59.786Z,3.50
2023-05-19T00:11:27.007Z,3.30
2023-05-19T00:13:54.465Z,3.22
2023-05-19T00:16:22.583Z,3.00
2023-05-19T00:18:49.416Z,2.97
2023-05-19T00:21:16.769Z,3.13
2023-05-19T00:23:43.471Z,2.80
2023-05-19T00:26:10.213Z,2.80
2023-05-19T00:28:36.739Z,2.50
2023-05-19T00:31:04.651Z,2.72
2023-05-19T00:33:31.081Z,2.50
2023-05-19T00:35:57.508Z,2.88
2023-05-19T00:38:24.026Z,2.45
2023-05-19T00:40:50.763Z,2.47
2023-05-19T00:43:17.256Z,2.75
2023-05-19T00:45:43.734Z,3.03
2023-05-19T00:48:10.292Z,3.17
2023-05-19T00:50:37.048Z,2.50
2023-05-19T00:53:06.881Z,2.10
2023-05-19T00:55:33.665Z,2.63
2023-05-19T00:58:00.292Z,2.55
2023-05-19T01:00:26.765Z,2.78
2023-05-19T01:02:54.273Z,2.22
2023-05-19T01:05:20.966Z,2.50
2023-05-19T01:07:47.634Z,2.17
2023-05-19T01:10:16.544Z,2.15
2023-05-19T01:12:43.303Z,2.38
2023-05-19T01:15:10.082Z,2.55
2023-05-19T01:17:49.606Z,2.88
2023-05-19T01:20:22.797Z,2.95
2023-05-19T01:22:55.533Z,2.45
2023-05-19T01:25:42.515Z,2.80
2023-05-19T01:28:12.112Z,2.17
2023-05-19T01:30:42.905Z,2.20
2023-05-19T01:33:12.545Z,2.58
2023-05-19T01:35:40.861Z,3.38
2023-05-19T01:38:12.800Z,2.38
2023-05-19T01:40:40.221Z,2.28
2023-05-19T01:43:07.952Z,2.70
2023-05-19T01:45:34.502Z,2.65
2023-05-19T01:48:02.772Z,2.13
2023-05-19T01:50:29.761Z,3.63
2023-05-19T01:52:56.400Z,2.80
2023-05-19T01:55:23.861Z,3.70
2023-05-19T01:57:59.500Z,2.20
2023-05-19T02:00:32.362Z,2.80
2023-05-19T02:03:19.307Z,2.40
2023-05-19T02:05:48.294Z,2.83
2023-05-19T02:08:20.790Z,2.58
2023-05-19T02:10:51.561Z,2.40
2023-05-19T02:13:23.664Z,2.40
2023-05-19T02:15:52.101Z,2.80
2023-05-19T02:18:20.327Z,2.55
2023-05-19T02:20:46.807Z,2.60
2023-05-19T02:23:13.351Z,1.85
2023-05-19T02:25:39.875Z,2.95
2023-05-19T02:28:06.769Z,2.72
2023-05-19T02:30:33.517Z,2.72
2023-05-19T02:33:00.612Z,2.75
2023-05-19T02:35:27.976Z,2.55
2023-05-19T02:37:54.554Z,2.50
2023-05-19T02:40:21.171Z,2.67
2023-05-19T02:42:47.703Z,2.20
2023-05-19T02:45:14.460Z,2.25
2023-05-19T02:47:44.072Z,2.50
2023-05-19T02:50:11.010Z,2.10
2023-05-19T02:52:37.491Z,2.08
2023-05-19T02:55:04.134Z,2.45
2023-05-19T02:57:31.844Z,2.30
2023-05-19T02:59:58.501Z,2.47
2023-05-19T03:02:25.109Z,2.47
2023-05-19T03:04:53.335Z,2.38
2023-05-19T03:07:25.022Z,2.50
2023-05-19T03:09:52.507Z,2.50
2023-05-19T03:12:18.978Z,4.45
2023-05-19T03:14:45.505Z,3.63
2023-05-19T03:17:12.426Z,2.75
2023-05-19T03:19:39.032Z,2.97
2023-05-19T03:22:05.541Z,2.67
2023-05-19T03:24:32.697Z,2.80
2023-05-19T03:26:59.189Z,2.95
2023-05-19T03:29:25.713Z,2.60
2023-05-19T03:31:52.260Z,6.07
2023-05-19T03:34:18.798Z,3.80
2023-05-19T03:36:45.326Z,3.70
2023-05-19T03:39:12.150Z,4.25
2023-05-19T03:41:38.592Z,4.18
2023-05-19T03:44:05.228Z,4.45
2023-05-19T03:46:31.699Z,3.95
2023-05-19T03:48:58.271Z,4.13
2023-05-19T03:51:27.155Z,5.03
2023-05-19T03:53:53.643Z,3.53
2023-05-19T03:56:23.121Z,3.85
2023-05-19T03:58:49.908Z,4.57
2023-05-19T04:01:16.423Z,3.72
2023-05-19T04:03:44.538Z,3.78
2023-05-19T04:06:11.192Z,3.58
2023-05-19T04:08:37.731Z,4.05
2023-05-19T04:11:04.348Z,3.65
2023-05-19T04:13:32.957Z,3.70
2023-05-19T04:15:59.469Z,3.88
2023-05-19T04:18:28.835Z,3.75
2023-05-19T04:20:55.854Z,4.20
2023-05-19T04:23:22.542Z,3.88
2023-05-19T04:25:49.390Z,3.63
2023-05-19T04:28:16.144Z,4.22
2023-05-19T04:30:43.163Z,4.53
2023-05-19T04:33:09.779Z,4.60
2023-05-19T04:35:38.246Z,3.88
2023-05-19T04:38:04.847Z,3.42
2023-05-19T04:40:31.737Z,3.40
2023-05-19T04:42:59.161Z,3.25
2023-05-19T04:45:26.150Z,3.00
2023-05-19T04:47:52.800Z,2.90
2023-05-19T04:50:19.491Z,2.22
2023-05-19T04:52:45.962Z,2.50
2023-05-19T04:55:13.418Z,3.00
2023-05-19T04:57:40.373Z,2.70
2023-05-19T05:00:09.124Z,2.83
2023-05-19T05:02:36.309Z,2.55
2023-05-19T05:05:02.986Z,2.90
2023-05-19T05:07:31.666Z,3.20
2023-05-19T05:09:59.070Z,2.97
2023-05-19T05:12:25.717Z,2.63
2023-05-19T05:14:52.407Z,2.78
2023-05-19T05:17:18.991Z,3.00
2023-05-19T05:19:45.615Z,2.75
2023-05-19T05:22:12.339Z,3.00
2023-05-19T05:24:39.080Z,3.15
2023-05-19T05:27:08.107Z,2.50
2023-05-19T05:29:37.789Z,2.67
2023-05-19T05:32:04.494Z,3.17
2023-05-19T05:34:31.024Z,2.88
2023-05-19T05:36:57.518Z,3.40
2023-05-19T05:39:24.057Z,3.33
2023-05-19T05:41:50.543Z,3.03
2023-05-19T05:44:17.006Z,2.92
2023-05-19T05:46:43.607Z,2.88
2023-05-19T05:49:10.575Z,2.78
2023-05-19T05:51:37.286Z,2.90
2023-05-19T05:54:06.545Z,2.88
2023-05-19T05:56:37.122Z,2.40
2023-05-19T05:59:03.678Z,2.47
2023-05-19T06:01:35.524Z,2.20
2023-05-19T06:04:02.297Z,2.05
2023-05-19T06:06:28.903Z,1.90
2023-05-19T06:08:55.408Z,2.15
2023-05-19T06:11:21.975Z,1.90
2023-05-19T06:13:48.577Z,3.70
2023-05-19T06:18:55.656Z,1.85
2023-05-19T06:21:22.776Z,2.10
2023-05-19T06:23:49.372Z,1.90
2023-05-19T06:26:16.803Z,1.75
2023-05-19T06:28:43.292Z,2.28
2023-05-19T06:31:12.883Z,1.80
2023-05-19T06:33:39.407Z,2.05
2023-05-19T06:36:06.152Z,2.83
2023-05-19T06:38:32.674Z,1.95
2023-05-19T06:40:59.235Z,2.35
2023-05-19T06:43:26.074Z,1.98
2023-05-19T06:45:52.673Z,1.90
2023-05-19T06:48:21.810Z,2.67
2023-05-19T06:50:48.301Z,2.20
2023-05-19T06:53:14.754Z,1.92
2023-05-19T06:55:50.789Z,1.70
2023-05-19T06:58:25.049Z,1.58
2023-05-19T07:00:51.653Z,1.63
2023-05-19T07:03:19.326Z,1.85
2023-05-19T07:05:46.031Z,1.77
2023-05-19T07:08:12.653Z,1.65
2023-05-19T07:10:39.160Z,1.50
2023-05-19T07:13:05.674Z,1.85
2023-05-19T07:15:33.842Z,1.75
2023-05-19T07:18:00.909Z,1.85
2023-05-19T07:20:27.406Z,2.10
2023-05-19T07:22:53.924Z,2.10
2023-05-19T07:25:20.801Z,1.83
2023-05-19T07:27:47.328Z,1.90
2023-05-19T07:30:13.884Z,1.75
2023-05-19T07:32:40.526Z,1.85
2023-05-19T07:35:07.354Z,1.40
2023-05-19T07:37:33.958Z,1.80
2023-05-19T07:40:00.488Z,1.50
2023-05-19T07:42:27.026Z,1.90
2023-05-19T07:44:53.569Z,1.75
2023-05-19T07:47:20.126Z,1.40
2023-05-19T07:49:48.595Z,1.40
2023-05-19T07:52:18.284Z,1.42
2023-05-19T07:54:45.626Z,1.38
2023-05-19T07:57:12.230Z,1.23
2023-05-19T07:59:38.764Z,1.77
2023-05-19T08:02:05.525Z,1.50
2023-05-19T08:04:34.473Z,1.98
2023-05-19T08:07:01.089Z,2.00
2023-05-19T08:09:27.595Z,1.70
2023-05-19T08:11:54.143Z,2.15
2023-05-19T08:14:22.877Z,2.58
2023-05-19T08:16:49.871Z,2.35
2023-05-19T08:19:16.405Z,3.33
2023-05-19T08:21:43.008Z,1.92
2023-05-19T08:24:09.624Z,2.00
2023-05-19T08:26:37.773Z,2.15
2023-05-19T08:29:04.622Z,2.38
2023-05-19T08:31:31.183Z,2.58
2023-05-19T08:33:57.745Z,2.80
2023-05-19T08:36:24.870Z,2.10
2023-05-19T08:38:51.619Z,2.50
2023-05-19T08:41:18.118Z,2.22
2023-05-19T08:43:45.523Z,2.33
2023-05-19T08:46:15.115Z,2.28
2023-05-19T08:48:42.580Z,2.17
2023-05-19T08:51:17.968Z,1.88
2023-05-19T08:53:48.530Z,2.78
2023-05-19T08:56:16.646Z,2.42
2023-05-19T08:58:44.226Z,2.20
2023-05-19T09:01:13.640Z,2.30
2023-05-19T09:03:40.853Z,2.03
2023-05-19T09:06:12.590Z,1.95
2023-05-19T09:08:43.840Z,2.03
2023-05-19T09:11:10.582Z,2.30
2023-05-19T09:13:37.198Z,2.45
2023-05-19T09:16:04.092Z,1.98
2023-05-19T09:18:30.912Z,2.55
2023-05-19T09:21:00.875Z,1.98
2023-05-19T09:23:32.448Z,2.08
2023-05-19T09:26:01.582Z,2.65
2023-05-19T09:28:33.993Z,2.20
2023-05-19T09:31:08.079Z,2.00
2023-05-19T09:33:35.787Z,1.92
2023-05-19T09:36:04.048Z,2.05
2023-05-19T09:38:31.085Z,2.17
2023-05-19T09:40:58.570Z,2.20
2023-05-19T09:43:29.610Z,2.22
2023-05-19T09:46:15.782Z,1.95
2023-05-19T09:48:44.551Z,2.13
2023-05-19T09:51:12.292Z,2.15
2023-05-19T09:53:39.303Z,2.13
2023-05-19T09:56:06.301Z,2.22
2023-05-19T09:58:36.696Z,2.17
2023-05-19T10:01:04.019Z,1.95
2023-05-19T10:03:32.657Z,1.70
2023-05-19T10:06:00.280Z,1.85
2023-05-19T10:08:27.577Z,2.20
2023-05-19T10:10:54.202Z,2.13
2023-05-19T10:13:21.533Z,1.75
2023-05-19T10:15:57.976Z,1.77
2023-05-19T10:18:26.846Z,2.03
2023-05-19T10:20:54.411Z,1.95
2023-05-19T10:23:21.236Z,1.70
2023-05-19T10:25:49.401Z,1.98
2023-05-19T10:28:17.476Z,2.35
2023-05-19T10:30:48.646Z,1.48
2023-05-19T10:33:16.162Z,1.70
2023-05-19T10:35:51.223Z,2.00
2023-05-19T10:38:37.356Z,1.60
2023-05-19T10:41:09.975Z,2.00
2023-05-19T10:43:40.724Z,1.88
2023-05-19T10:46:07.197Z,1.70
2023-05-19T10:48:36.149Z,1.90
2023-05-19T10:51:03.085Z,2.90
2023-05-19T10:53:33.038Z,2.03
2023-05-19T10:56:06.952Z,1.73
2023-05-19T10:58:37.065Z,1.90
2023-05-19T11:01:08.032Z,1.75
2023-05-19T11:03:44.586Z,1.95
2023-05-19T11:06:34.015Z,1.85
2023-05-19T11:09:01.522Z,1.80
2023-05-19T11:11:46.454Z,1.95
2023-05-19T11:14:17.051Z,1.95
2023-05-19T11:16:46.331Z,1.75
2023-05-19T11:22:37.133Z,1.70
2023-05-19T11:27:55.890Z,1.50
2023-05-19T11:30:25.264Z,1.90
2023-05-19T11:32:51.969Z,2.03
2023-05-19T11:35:22.034Z,2.13
2023-05-19T11:37:49.081Z,2.13
2023-05-19T11:40:15.744Z,2.10
2023-05-19T11:42:44.937Z,2.22
2023-05-19T11:45:11.506Z,2.17
2023-05-19T11:47:50.919Z,1.73
2023-05-19T11:50:27.791Z,1.70
2023-05-19T11:52:55.133Z,2.15
2023-05-19T11:55:25.443Z,2.25
2023-05-19T11:58:03.807Z,2.10
2023-05-19T12:00:37.267Z,1.80
2023-05-19T12:03:04.327Z,1.70
2023-05-19T12:05:34.482Z,1.88
2023-05-19T12:08:02.642Z,1.95
2023-05-19T12:10:30.468Z,2.00
2023-05-19T12:12:58.491Z,2.03
2023-05-19T12:15:25.287Z,2.03
2023-05-19T12:17:59.199Z,2.10
2023-05-19T12:20:29.662Z,2.20
2023-05-19T12:22:56.517Z,1.83
2023-05-19T12:25:23.686Z,2.40
2023-05-19T12:27:52.707Z,2.25
2023-05-19T12:30:25.203Z,2.00
2023-05-19T12:32:53.627Z,2.35
2023-05-19T12:35:20.493Z,2.03
2023-05-19T12:37:49.238Z,2.45
2023-05-19T12:40:16.925Z,1.98
2023-05-19T12:42:46.863Z,2.33
2023-05-19T12:45:13.466Z,2.10
2023-05-19T12:47:47.464Z,1.73
2023-05-19T12:50:14.686Z,2.08
2023-05-19T12:52:48.561Z,2.10
2023-05-19T12:55:16.611Z,2.00
2023-05-19T12:57:50.666Z,2.38
2023-05-19T13:00:20.819Z,1.80
2023-05-19T13:03:05.350Z,2.15
2023-05-19T13:05:36.820Z,2.40
2023-05-19T13:08:07.335Z,2.20
2023-05-19T13:10:36.298Z,2.35
2023-05-19T13:13:03.406Z,2.30
2023-05-19T13:15:36.551Z,2.40
2023-05-19T13:18:03.855Z,2.78
2023-05-19T13:20:30.527Z,2.30
2023-05-19T13:22:57.508Z,1.90
2023-05-19T13:25:24.240Z,2.58
2023-05-19T13:27:51.090Z,2.42
2023-05-19T13:30:18.166Z,2.80
2023-05-19T13:32:45.127Z,2.50
2023-05-19T13:35:12.776Z,2.70
2023-05-19T13:37:42.094Z,2.30
2023-05-19T13:40:09.551Z,2.07
2023-05-19T13:42:36.215Z,2.40
2023-05-19T13:45:03.024Z,2.47
2023-05-19T13:47:29.801Z,2.67
2023-05-19T13:49:56.672Z,2.28
2023-05-19T13:52:23.601Z,2.00
2023-05-19T13:54:50.320Z,2.03
2023-05-19T13:57:16.842Z,2.20
2023-05-19T13:59:57.727Z,1.95
2023-05-19T14:02:27.446Z,2.35
2023-05-19T14:04:54.388Z,2.78
2023-05-19T14:07:21.236Z,2.00
2023-05-19T14:09:47.825Z,2.22
2023-05-19T14:12:14.407Z,2.17
2023-05-19T14:14:40.991Z,2.50
2023-05-19T14:17:07.453Z,2.50
2023-05-19T14:19:34.022Z,2.13
2023-05-19T14:22:00.498Z,2.00
2023-05-19T14:24:26.963Z,2.33
2023-05-19T14:26:53.879Z,2.08
2023-05-19T14:29:23.681Z,2.38
2023-05-19T14:31:50.364Z,2.20
2023-05-19T14:34:20.895Z,2.10
2023-05-19T14:36:48.031Z,2.40
2023-05-19T14:39:14.908Z,2.20
2023-05-19T14:41:41.452Z,2.15
2023-05-19T14:44:07.971Z,2.22
2023-05-19T14:46:34.529Z,2.40
2023-05-19T14:49:01.169Z,2.00
2023-05-19T14:51:27.704Z,2.15
2023-05-19T14:53:54.188Z,2.22
2023-05-19T14:56:22.173Z,2.28
2023-05-19T14:58:48.685Z,2.00
2023-05-19T15:01:15.211Z,2.20
2023-05-19T15:03:45.249Z,1.98
2023-05-19T15:06:11.745Z,2.28
2023-05-19T15:08:39.226Z,2.30
2023-05-19T15:11:05.768Z,2.00
2023-05-19T15:13:32.241Z,2.28
2023-05-19T15:16:12.558Z,2.20
2023-05-19T15:18:43.315Z,2.10
2023-05-19T15:21:09.991Z,1.85
2023-05-19T15:23:36.542Z,2.25
2023-05-19T15:26:03.014Z,1.95
2023-05-19T15:28:29.627Z,2.20
2023-05-19T15:30:56.591Z,1.83
2023-05-19T15:33:23.166Z,1.83
2023-05-19T15:35:51.758Z,2.00
2023-05-19T15:38:19.052Z,1.77
2023-05-19T15:40:46.012Z,2.05
2023-05-19T15:43:12.764Z,2.22
2023-05-19T15:45:39.209Z,1.90
2023-05-19T15:48:08.891Z,1.90
2023-05-19T15:50:36.146Z,1.95
2023-05-19T15:53:02.890Z,2.33
2023-05-19T15:55:29.367Z,2.20
2023-05-19T15:57:56.068Z,1.95
2023-05-19T16:00:22.572Z,1.65
2023-05-19T16:02:49.169Z,2.47
2023-05-19T16:05:18.741Z,1.73
2023-05-19T16:07:45.273Z,2.33
2023-05-19T16:10:11.860Z,1.67
2023-05-19T16:12:38.354Z,1.70
2023-05-19T16:15:05.030Z,1.85
2023-05-19T16:17:31.515Z,2.35
2023-05-19T16:19:57.988Z,2.10
2023-05-19T16:22:27.255Z,1.77
2023-05-19T16:24:53.776Z,2.17
2023-05-19T16:27:20.409Z,2.40
2023-05-19T16:29:46.874Z,2.97
2023-05-19T16:32:13.514Z,2.10
2023-05-19T16:34:40.095Z,2.30
2023-05-19T16:37:06.742Z,2.65
2023-05-19T16:39:37.637Z,2.30
2023-05-19T16:42:04.532Z,2.28
2023-05-19T16:44:31.250Z,2.28
2023-05-19T16:46:57.719Z,2.53
2023-05-19T16:49:24.261Z,2.35
2023-05-19T16:51:52.931Z,2.30
2023-05-19T16:54:19.830Z,2.20
2023-05-19T16:56:50.140Z,2.33
2023-05-19T16:59:17.289Z,2.10
2023-05-19T17:01:44.074Z,2.40
2023-05-19T17:04:10.633Z,2.10
2023-05-19T17:06:37.147Z,1.95
2023-05-19T17:09:03.969Z,2.70
2023-05-19T17:11:30.511Z,2.58
2023-05-19T17:14:00.110Z,2.70
2023-05-19T17:16:26.634Z,3.28
2023-05-19T17:18:53.269Z,3.30
2023-05-19T17:21:19.986Z,3.45
2023-05-19T17:23:46.659Z,2.83
2023-05-19T17:26:13.179Z,2.92
2023-05-19T17:28:39.825Z,3.50
2023-05-19T17:31:12.849Z,3.08
2023-05-19T17:33:39.484Z,3.38
2023-05-19T17:36:06.330Z,3.83
2023-05-19T17:38:33.004Z,6.50
2023-05-19T17:41:00.195Z,3.50
2023-05-19T17:43:27.049Z,3.63
2023-05-19T17:45:53.956Z,6.78
2023-05-19T17:48:23.607Z,6.75
2023-05-19T17:50:50.074Z,3.75
2023-05-19T17:53:16.715Z,2.70
2023-05-19T17:55:45.106Z,3.03
2023-05-19T17:58:11.754Z,3.17
2023-05-19T18:00:38.318Z,2.85
2023-05-19T18:03:06.250Z,3.38
2023-05-19T18:05:33.325Z,3.05
2023-05-19T18:08:03.559Z,2.38
2023-05-19T18:10:31.198Z,2.72
2023-05-19T18:12:57.774Z,2.78
2023-05-19T18:15:24.445Z,3.15
2023-05-19T18:17:51.003Z,3.55
2023-05-19T18:20:17.652Z,3.08
2023-05-19T18:22:44.197Z,3.10
2023-05-19T18:25:10.760Z,3.10
2023-05-19T18:27:37.286Z,3.15
2023-05-19T18:30:04.060Z,3.17
2023-05-19T18:32:30.714Z,3.25
2023-05-19T18:34:57.249Z,3.22
2023-05-19T18:37:23.771Z,3.08
2023-05-19T18:39:52.578Z,3.13
2023-05-19T18:42:19.040Z,3.38
2023-05-19T18:44:50.544Z,3.13
2023-05-19T18:47:18.977Z,3.58
2023-05-19T18:49:45.695Z,3.45
2023-05-19T18:52:12.328Z,4.15
2023-05-19T18:54:38.901Z,4.00
2023-05-19T18:57:05.684Z,3.72
2023-05-19T18:59:32.323Z,4.18
2023-05-19T19:01:58.798Z,3.80
2023-05-19T19:04:25.284Z,4.00
2023-05-19T19:06:52.389Z,4.13
2023-05-19T19:09:19.170Z,4.15
2023-05-19T19:11:45.718Z,3.78
2023-05-19T19:14:15.414Z,3.42
2023-05-19T19:16:41.890Z,3.92
2023-05-19T19:19:08.617Z,4.22
2023-05-19T19:21:35.200Z,3.72
2023-05-19T19:24:02.139Z,3.95
2023-05-19T19:26:29.125Z,4.60
2023-05-19T19:28:56.153Z,4.10
2023-05-19T19:31:28.856Z,4.40
2023-05-19T19:33:58.970Z,3.78
2023-05-19T19:36:26.233Z,4.78
2023-05-19T19:38:52.706Z,4.55
2023-05-19T19:41:19.938Z,4.03
2023-05-19T19:43:46.485Z,4.95
2023-05-19T19:46:12.996Z,4.50
2023-05-19T19:48:39.480Z,4.47
2023-05-19T19:51:05.957Z,3.97
2023-05-19T19:53:32.435Z,4.60
2023-05-19T19:55:59.888Z,4.35
2023-05-19T19:58:26.814Z,4.10
2023-05-19T20:01:00.206Z,4.82
2023-05-19T20:03:27.165Z,5.32
2023-05-19T20:05:54.373Z,4.53
2023-05-19T20:08:21.517Z,4.80
2023-05-19T20:10:48.232Z,4.63
2023-05-19T20:13:15.464Z,4.97
2023-05-19T20:15:42.374Z,4.82
2023-05-19T20:18:09.050Z,4.90
2023-05-19T20:20:35.964Z,4.97
2023-05-19T20:23:02.576Z,4.85
2023-05-19T20:25:29.278Z,4.38
2023-05-19T20:27:55.777Z,5.03
2023-05-19T20:30:22.232Z,4.72
2023-05-19T20:32:48.882Z,4.78
2023-05-19T20:35:15.535Z,5.13
2023-05-19T20:37:42.001Z,5.32
2023-05-19T20:40:08.700Z,5.05
2023-05-19T20:42:35.281Z,5.10
2023-05-19T20:45:01.810Z,5.18
2023-05-19T20:47:30.277Z,5.38
2023-05-19T20:49:58.791Z,6.00
2023-05-19T20:52:25.262Z,5.32
2023-05-19T20:54:51.780Z,5.00
2023-05-19T20:57:18.249Z,4.93
2023-05-19T20:59:44.697Z,5.20
2023-05-19T21:02:11.740Z,4.82
2023-05-19T21:04:38.665Z,5.10
2023-05-19T21:07:05.520Z,5.40
2023-05-19T21:09:31.990Z,5.03
2023-05-19T21:11:58.486Z,5.45
2023-05-19T21:14:28.807Z,4.78
2023-05-19T21:16:56.008Z,4.95
2023-05-19T21:19:23.079Z,4.55
2023-05-19T21:21:49.632Z,5.18
2023-05-19T21:24:16.174Z,4.50
2023-05-19T21:26:43.133Z,5.43
2023-05-19T21:29:09.767Z,4.75
2023-05-19T21:31:36.371Z,5.07
2023-05-19T21:34:03.393Z,5.30
2023-05-19T21:36:29.898Z,5.05
2023-05-19T21:38:56.372Z,4.72
2023-05-19T21:41:22.818Z,5.47
2023-05-19T21:43:49.350Z,4.95
2023-05-19T21:46:15.951Z,4.80
2023-05-19T21:48:42.470Z,5.10
2023-05-19T21:51:09.056Z,5.18
2023-05-19T21:53:35.577Z,4.40
2023-05-19T21:56:02.089Z,5.13
2023-05-19T21:58:29.682Z,4.68
2023-05-19T22:00:56.580Z,5.50
2023-05-19T22:03:23.551Z,5.57
2023-05-19T22:05:53.328Z,6.03
2023-05-19T22:08:20.370Z,4.82
2023-05-19T22:10:51.053Z,4.95
2023-05-19T22:13:18.058Z,5.57
2023-05-19T22:15:45.079Z,5.68
2023-05-19T22:18:11.821Z,6.53
2023-05-19T22:20:38.406Z,5.18
2023-05-19T22:23:04.880Z,5.38
2023-05-19T22:25:31.719Z,5.45
2023-05-19T22:27:58.990Z,6.03
2023-05-19T22:30:25.818Z,5.03
2023-05-19T22:32:52.351Z,4.70
2023-05-19T22:35:19.137Z,4.35
2023-05-19T22:37:45.831Z,5.10
2023-05-19T22:40:12.528Z,5.20
2023-05-19T22:42:39.114Z,5.30
2023-05-19T22:45:06.310Z,4.95
2023-05-19T22:47:33.988Z,5.07
2023-05-19T22:50:00.654Z,4.78
2023-05-19T22:52:27.161Z,5.25
2023-05-19T22:54:53.609Z,5.13
2023-05-19T22:57:20.178Z,4.68
2023-05-19T22:59:46.680Z,5.05
2023-05-19T23:02:13.126Z,5.35
2023-05-19T23:04:39.628Z,5.30
2023-05-19T23:07:06.252Z,5.32
2023-05-19T23:09:32.885Z,4.95
2023-05-19T23:11:59.343Z,5.00
2023-05-19T23:14:26.097Z,4.28
2023-05-19T23:16:52.595Z,5.15
2023-05-19T23:19:20.442Z,5.75
2023-05-19T23:21:48.891Z,4.97
2023-05-19T23:24:15.798Z,5.18
2023-05-19T23:26:43.977Z,4.88
2023-05-19T23:29:14.731Z,5.88
2023-05-19T23:31:41.499Z,5.25
2023-05-19T23:34:08.194Z,5.10
2023-05-19T23:36:34.675Z,5.35
2023-05-19T23:39:01.237Z,4.95
2023-05-19T23:41:27.706Z,5.00
2023-05-19T23:43:54.529Z,4.93
2023-05-19T23:46:21.078Z,5.97
2023-05-19T23:48:47.591Z,5.07
2023-05-19T23:51:14.123Z,5.35
2023-05-19T23:53:40.761Z,5.45
2023-05-19T23:56:07.593Z,5.55
2023-05-19T23:58:34.093Z,5.60
